Accueil
METAR-TAF:

METAR-TAF

Aéroports :

Aéroport international de Coni

Coni, Italie

latitude: 44-32-47N, longitude: 007-37-20E, altitude: 386 m

Observation

Le bulletin a été fait il y a 19 minutes, à 07:50 UTC
Vent 1 kt de direction variable
Température 20°C
Humidité 68%
Pression 1025 hPa
Visibilité 10 km ou plus

METAR: LIMZ 140750Z AUTO VRB01KT 9999 NCD 20/14 Q1025

Heure: 10:09 (08:09 UTC)

Prévision

Le bulletin a été fait il y a 3 heures et 9 minutes, à 05:00 UTC
Prévision valable du 14 à 06 UTC au 15 à 06 UTC
Vent 4 kt de direction variable
Visibilité 10 km ou plus
Quelques nuages à une hauteur de 4000 ft

TAF: LIMZ 140500Z 1406/1506 VRB04KT 9999 FEW040

Observations et prévisions météorologiques de plus de 4000 aéroports (messages METAR et TAF).

Les stations disponibles sont représentées par des disques jaunes et rouges sur la carte.

Passer la souris dessus pour voir le nom de la station.

Cliquer dessus pour voir les observations et prévisions météorologiques.

Pour changer de carte: cliquez sur les boutons verts avec une croix noire pour zoomer, sur le bouton vert avec un tiret pour effectuer un zoom arrière, ou sur les flèches vertes pour les cartes adjacentes.


METAR-TAF: